sensor_id;sensor_type;location;lat;lon;timestamp;pressure;altitude;pressure_sealevel;temperature;humidity
60228;BME280;46091;46.512;6.626;2023-02-18T09:55:27;98176.84;;;11.22;59.25
60228;BME280;46091;46.512;6.626;2023-02-18T09:57:38;98174.19;;;11.54;58.66
60228;BME280;46091;46.512;6.626;2023-02-18T09:59:43;98176.16;;;11.77;58.39
60228;BME280;46091;46.512;6.626;2023-02-18T10:01:48;98174.22;;;11.95;58.37
60228;BME280;46091;46.512;6.626;2023-02-18T10:03:52;98174.84;;;12.13;57.85
60228;BME280;46091;46.512;6.626;2023-02-18T10:05:59;98170.00;;;12.25;57.77
60228;BME280;46091;46.512;6.626;2023-02-18T10:08:05;98167.16;;;12.35;57.45
60228;BME280;46091;46.512;6.626;2023-02-18T10:12:21;98162.63;;;12.51;57.30
60228;BME280;46091;46.512;6.626;2023-02-18T10:14:25;98166.06;;;12.60;56.94
60228;BME280;46091;46.512;6.626;2023-02-18T10:16:29;98160.78;;;12.60;56.85
60228;BME280;46091;46.512;6.626;2023-02-18T10:18:36;98158.13;;;12.60;56.66
60228;BME280;46091;46.512;6.626;2023-02-18T10:20:42;98161.88;;;12.66;56.90
60228;BME280;46091;46.512;6.626;2023-02-18T10:22:45;98165.69;;;12.71;56.58
60228;BME280;46091;46.512;6.626;2023-02-18T10:24:50;98163.50;;;12.75;56.22
60228;BME280;46091;46.512;6.626;2023-02-18T10:26:54;98162.97;;;12.79;56.21
60228;BME280;46091;46.512;6.626;2023-02-18T10:28:59;98152.31;;;12.88;56.11
60228;BME280;46091;46.512;6.626;2023-02-18T10:31:04;98160.63;;;12.93;55.71
60228;BME280;46091;46.512;6.626;2023-02-18T10:33:25;98156.78;;;12.95;55.66
60228;BME280;46091;46.512;6.626;2023-02-18T10:35:33;98157.25;;;12.99;55.51
60228;BME280;46091;46.512;6.626;2023-02-18T10:37:56;98159.25;;;12.97;55.36
60228;BME280;46091;46.512;6.626;2023-02-18T10:40:10;98166.84;;;13.00;55.02
60228;BME280;46091;46.512;6.626;2023-02-18T10:42:25;98169.00;;;13.04;54.92
60228;BME280;46091;46.512;6.626;2023-02-18T10:44:43;98163.81;;;13.11;54.88
60228;BME280;46091;46.512;6.626;2023-02-18T10:46:58;98165.13;;;13.15;54.57
60228;BME280;46091;46.512;6.626;2023-02-18T10:49:23;98163.13;;;13.17;54.30
60228;BME280;46091;46.512;6.626;2023-02-18T10:51:31;98172.41;;;13.21;54.56
60228;BME280;46091;46.512;6.626;2023-02-18T10:53:37;98163.44;;;13.22;54.39
60228;BME280;46091;46.512;6.626;2023-02-18T10:55:43;98166.59;;;13.26;54.01
60228;BME280;46091;46.512;6.626;2023-02-18T10:57:48;98159.91;;;13.30;53.89
60228;BME280;46091;46.512;6.626;2023-02-18T11:00:03;98151.75;;;13.31;53.90
60228;BME280;46091;46.512;6.626;2023-02-18T11:02:17;98152.41;;;13.33;53.92
60228;BME280;46091;46.512;6.626;2023-02-18T11:04:24;98147.91;;;13.34;53.53
60228;BME280;46091;46.512;6.626;2023-02-18T11:06:31;98151.06;;;13.37;53.31
60228;BME280;46091;46.512;6.626;2023-02-18T11:08:41;98152.53;;;13.40;53.07
60228;BME280;46091;46.512;6.626;2023-02-18T11:10:47;98155.69;;;13.35;53.06
60228;BME280;46091;46.512;6.626;2023-02-18T11:12:55;98152.41;;;13.33;53.04
60228;BME280;46091;46.512;6.626;2023-02-18T11:15:16;98160.84;;;13.37;53.10
60228;BME280;46091;46.512;6.626;2023-02-18T11:17:26;98163.16;;;13.40;52.67
60228;BME280;46091;46.512;6.626;2023-02-18T11:19:31;98168.47;;;13.40;52.83
60228;BME280;46091;46.512;6.626;2023-02-18T11:21:36;98162.97;;;13.42;52.48
60228;BME280;46091;46.512;6.626;2023-02-18T11:23:46;98167.28;;;13.43;52.59
60228;BME280;46091;46.512;6.626;2023-02-18T11:25:55;98154.63;;;13.45;52.50
60228;BME280;46091;46.512;6.626;2023-02-18T11:28:01;98157.94;;;13.47;52.25
60228;BME280;46091;46.512;6.626;2023-02-18T11:30:18;98146.31;;;13.48;52.06
60228;BME280;46091;46.512;6.626;2023-02-18T11:32:25;98140.16;;;13.47;51.95
60228;BME280;46091;46.512;6.626;2023-02-18T11:34:30;98139.19;;;13.48;52.06
60228;BME280;46091;46.512;6.626;2023-02-18T11:36:35;98126.06;;;13.47;52.17
60228;BME280;46091;46.512;6.626;2023-02-18T11:38:43;98134.03;;;13.47;52.23
60228;BME280;46091;46.512;6.626;2023-02-18T11:40:52;98129.72;;;13.46;52.05
60228;BME280;46091;46.512;6.626;2023-02-18T11:43:06;98133.38;;;13.45;51.83
60228;BME280;46091;46.512;6.626;2023-02-18T11:45:23;98121.56;;;13.47;52.01
60228;BME280;46091;46.512;6.626;2023-02-18T11:47:32;98117.75;;;13.50;51.98
60228;BME280;46091;46.512;6.626;2023-02-18T11:49:35;98107.75;;;13.52;51.61
60228;BME280;46091;46.512;6.626;2023-02-18T11:51:39;98110.06;;;13.55;51.69
60228;BME280;46091;46.512;6.626;2023-02-18T11:53:55;98106.22;;;13.57;51.67
60228;BME280;46091;46.512;6.626;2023-02-18T11:56:01;98108.34;;;13.62;51.79
60228;BME280;46091;46.512;6.626;2023-02-18T11:58:05;98095.69;;;13.64;51.40
60228;BME280;46091;46.512;6.626;2023-02-18T12:00:18;98102.47;;;13.66;51.76
60228;BME280;46091;46.512;6.626;2023-02-18T12:02:29;98094.13;;;13.69;51.51
60228;BME280;46091;46.512;6.626;2023-02-18T12:04:39;98090.13;;;13.74;51.64
60228;BME280;46091;46.512;6.626;2023-02-18T12:06:49;98089.75;;;13.77;51.32
60228;BME280;46091;46.512;6.626;2023-02-18T12:08:58;98094.50;;;13.81;51.21
60228;BME280;46091;46.512;6.626;2023-02-18T12:11:05;98092.34;;;13.85;51.12
60228;BME280;46091;46.512;6.626;2023-02-18T12:13:23;98080.69;;;13.86;51.17
60228;BME280;46091;46.512;6.626;2023-02-18T12:15:36;98080.50;;;13.87;50.85
60228;BME280;46091;46.512;6.626;2023-02-18T12:17:56;98081.16;;;13.89;50.99
60228;BME280;46091;46.512;6.626;2023-02-18T12:20:26;98071.53;;;13.88;50.88
60228;BME280;46091;46.512;6.626;2023-02-18T12:22:41;98075.56;;;13.84;50.54
60228;BME280;46091;46.512;6.626;2023-02-18T12:24:55;98065.13;;;13.83;50.60
60228;BME280;46091;46.512;6.626;2023-02-18T12:27:08;98061.44;;;13.84;50.55
60228;BME280;46091;46.512;6.626;2023-02-18T12:29:30;98061.63;;;13.82;50.50
60228;BME280;46091;46.512;6.626;2023-02-18T12:31:56;98059.50;;;13.78;50.36
60228;BME280;46091;46.512;6.626;2023-02-18T12:34:17;98058.41;;;13.72;50.77
60228;BME280;46091;46.512;6.626;2023-02-18T12:36:36;98053.56;;;13.76;50.89
60228;BME280;46091;46.512;6.626;2023-02-18T12:39:10;98049.31;;;13.81;50.59
60228;BME280;46091;46.512;6.626;2023-02-18T12:41:22;98044.31;;;13.86;50.73
60228;BME280;46091;46.512;6.626;2023-02-18T12:43:38;98040.25;;;13.90;50.65
60228;BME280;46091;46.512;6.626;2023-02-18T12:46:00;98036.25;;;13.94;50.88
60228;BME280;46091;46.512;6.626;2023-02-18T12:48:28;98028.72;;;13.98;50.76
60228;BME280;46091;46.512;6.626;2023-02-18T12:50:44;98029.78;;;14.04;50.80
60228;BME280;46091;46.512;6.626;2023-02-18T12:52:59;98024.75;;;14.09;50.87
60228;BME280;46091;46.512;6.626;2023-02-18T12:55:34;98024.00;;;14.15;50.75
60228;BME280;46091;46.512;6.626;2023-02-18T12:57:47;98018.16;;;14.19;50.64
60228;BME280;46091;46.512;6.626;2023-02-18T13:00:30;98013.28;;;14.23;50.98
60228;BME280;46091;46.512;6.626;2023-02-18T13:02:51;98006.59;;;14.27;51.07
60228;BME280;46091;46.512;6.626;2023-02-18T13:05:04;98000.25;;;14.28;50.91
60228;BME280;46091;46.512;6.626;2023-02-18T13:07:35;98003.34;;;14.32;51.02
60228;BME280;46091;46.512;6.626;2023-02-18T13:10:04;97989.03;;;14.33;51.26
60228;BME280;46091;46.512;6.626;2023-02-18T13:12:16;97994.81;;;14.36;51.09
60228;BME280;46091;46.512;6.626;2023-02-18T13:14:24;97989.13;;;14.39;51.31
60228;BME280;46091;46.512;6.626;2023-02-18T13:16:30;97989.56;;;14.43;51.11
60228;BME280;46091;46.512;6.626;2023-02-18T13:18:36;97990.22;;;14.45;51.28
60228;BME280;46091;46.512;6.626;2023-02-18T13:20:44;97980.03;;;14.48;51.22
60228;BME280;46091;46.512;6.626;2023-02-18T13:22:49;97977.00;;;14.51;51.31
60228;BME280;46091;46.512;6.626;2023-02-18T13:24:55;97972.31;;;14.53;51.52
60228;BME280;46091;46.512;6.626;2023-02-18T13:27:07;97966.16;;;14.53;51.49
60228;BME280;46091;46.512;6.626;2023-02-18T13:29:20;97968.84;;;14.53;51.29
60228;BME280;46091;46.512;6.626;2023-02-18T13:31:34;97963.13;;;14.56;51.52
60228;BME280;46091;46.512;6.626;2023-02-18T13:33:46;97964.97;;;14.55;51.55
60228;BME280;46091;46.512;6.626;2023-02-18T13:35:57;97959.88;;;14.61;51.68
60228;BME280;46091;46.512;6.626;2023-02-18T13:38:25;97951.72;;;14.62;51.36
60228;BME280;46091;46.512;6.626;2023-02-18T13:40:36;97951.53;;;14.64;51.53
60228;BME280;46091;46.512;6.626;2023-02-18T13:42:38;97949.69;;;14.64;51.60
60228;BME280;46091;46.512;6.626;2023-02-18T13:45:14;97944.19;;;14.66;51.47
60228;BME280;46091;46.512;6.626;2023-02-18T13:47:37;97942.16;;;14.68;51.48
60228;BME280;46091;46.512;6.626;2023-02-18T13:49:40;97938.66;;;14.67;51.73
60228;BME280;46091;46.512;6.626;2023-02-18T13:51:46;97939.47;;;14.68;51.65
60228;BME280;46091;46.512;6.626;2023-02-18T13:53:50;97932.13;;;14.70;51.59
60228;BME280;46091;46.512;6.626;2023-02-18T13:55:57;97931.78;;;14.73;51.67
60228;BME280;46091;46.512;6.626;2023-02-18T13:58:02;97923.78;;;14.73;51.85
60228;BME280;46091;46.512;6.626;2023-02-18T14:00:14;97914.13;;;14.72;51.80
60228;BME280;46091;46.512;6.626;2023-02-18T14:02:33;97915.78;;;14.73;51.87
60228;BME280;46091;46.512;6.626;2023-02-18T14:04:48;97910.09;;;14.76;51.70
60228;BME280;46091;46.512;6.626;2023-02-18T14:07:24;97910.09;;;14.76;51.76
60228;BME280;46091;46.512;6.626;2023-02-18T14:09:35;97904.75;;;14.76;51.85
60228;BME280;46091;46.512;6.626;2023-02-18T14:11:45;97898.22;;;14.78;51.90
60228;BME280;46091;46.512;6.626;2023-02-18T14:13:53;97908.03;;;14.78;51.98
60228;BME280;46091;46.512;6.626;2023-02-18T14:15:58;97902.72;;;14.78;51.68
60228;BME280;46091;46.512;6.626;2023-02-18T14:18:24;97905.00;;;14.81;51.71
60228;BME280;46091;46.512;6.626;2023-02-18T14:20:42;97899.66;;;14.81;51.60
60228;BME280;46091;46.512;6.626;2023-02-18T14:22:50;97900.28;;;14.83;51.90
60228;BME280;46091;46.512;6.626;2023-02-18T14:24:56;97899.47;;;14.82;51.74
60228;BME280;46091;46.512;6.626;2023-02-18T14:27:07;97888.81;;;14.82;51.82
60228;BME280;46091;46.512;6.626;2023-02-18T14:29:23;97893.31;;;14.82;51.72
60228;BME280;46091;46.512;6.626;2023-02-18T14:31:36;97896.63;;;14.84;51.68
60228;BME280;46091;46.512;6.626;2023-02-18T14:33:48;97884.31;;;14.83;51.46
60228;BME280;46091;46.512;6.626;2023-02-18T14:36:05;97882.31;;;14.85;51.65
60228;BME280;46091;46.512;6.626;2023-02-18T14:38:27;97881.28;;;14.86;51.77
60228;BME280;46091;46.512;6.626;2023-02-18T14:40:57;97873.94;;;14.88;51.67
60228;BME280;46091;46.512;6.626;2023-02-18T14:43:07;97881.09;;;14.88;51.62
60228;BME280;46091;46.512;6.626;2023-02-18T14:45:16;97869.63;;;14.87;51.55
60228;BME280;46091;46.512;6.626;2023-02-18T14:47:28;97874.94;;;14.87;51.74
60228;BME280;46091;46.512;6.626;2023-02-18T14:49:39;97867.97;;;14.86;51.73
60228;BME280;46091;46.512;6.626;2023-02-18T14:51:45;97873.94;;;14.88;51.90
60228;BME280;46091;46.512;6.626;2023-02-18T14:53:51;97866.75;;;14.89;51.68
60228;BME280;46091;46.512;6.626;2023-02-18T14:55:58;97861.25;;;14.90;51.60
60228;BME280;46091;46.512;6.626;2023-02-18T14:58:04;97856.13;;;14.89;51.80
60228;BME280;46091;46.512;6.626;2023-02-18T15:00:15;97856.31;;;14.87;51.64
60228;BME280;46091;46.512;6.626;2023-02-18T15:02:20;97849.97;;;14.88;51.53
60228;BME280;46091;46.512;6.626;2023-02-18T15:04:24;97852.81;;;14.87;51.84
60228;BME280;46091;46.512;6.626;2023-02-18T15:06:29;97848.31;;;14.87;51.98
60228;BME280;46091;46.512;6.626;2023-02-18T15:08:36;97842.19;;;14.87;51.59
60228;BME280;46091;46.512;6.626;2023-02-18T15:10:43;97844.84;;;14.87;51.60
60228;BME280;46091;46.512;6.626;2023-02-18T15:12:47;97836.84;;;14.87;51.71
60228;BME280;46091;46.512;6.626;2023-02-18T15:14:52;97831.34;;;14.88;51.84
60228;BME280;46091;46.512;6.626;2023-02-18T15:16:57;97829.69;;;14.87;51.67
60228;BME280;46091;46.512;6.626;2023-02-18T15:19:02;97834.00;;;14.88;51.58
60228;BME280;46091;46.512;6.626;2023-02-18T15:21:08;97836.47;;;14.90;51.56
60228;BME280;46091;46.512;6.626;2023-02-18T15:23:18;97831.94;;;14.90;51.75
60228;BME280;46091;46.512;6.626;2023-02-18T15:25:21;97826.63;;;14.90;51.49
60228;BME280;46091;46.512;6.626;2023-02-18T15:27:27;97828.28;;;14.91;51.80
60228;BME280;46091;46.512;6.626;2023-02-18T15:29:33;97817.63;;;14.91;51.67
60228;BME280;46091;46.512;6.626;2023-02-18T15:31:37;97821.50;;;14.89;51.84
60228;BME280;46091;46.512;6.626;2023-02-18T15:33:42;97826.00;;;14.88;51.56
60228;BME280;46091;46.512;6.626;2023-02-18T15:35:45;97810.22;;;14.87;51.83
60228;BME280;46091;46.512;6.626;2023-02-18T15:37:51;97810.22;;;14.87;51.69
60228;BME280;46091;46.512;6.626;2023-02-18T15:39:55;97805.53;;;14.89;51.53
60228;BME280;46091;46.512;6.626;2023-02-18T15:42:00;97799.19;;;14.90;51.78
60228;BME280;46091;46.512;6.626;2023-02-18T15:44:06;97798.38;;;14.89;51.72
60228;BME280;46091;46.512;6.626;2023-02-18T15:46:12;97796.31;;;14.91;51.87
60228;BME280;46091;46.512;6.626;2023-02-18T15:48:22;97794.69;;;14.90;51.67
60228;BME280;46091;46.512;6.626;2023-02-18T15:50:31;97796.72;;;14.88;51.92
60228;BME280;46091;46.512;6.626;2023-02-18T15:52:37;97793.03;;;14.89;51.64
60228;BME280;46091;46.512;6.626;2023-02-18T15:54:41;97788.53;;;14.90;51.63
60228;BME280;46091;46.512;6.626;2023-02-18T15:56:45;97793.84;;;14.90;51.57
60228;BME280;46091;46.512;6.626;2023-02-18T15:58:55;97793.66;;;14.91;51.58
60228;BME280;46091;46.512;6.626;2023-02-18T16:01:01;97794.69;;;14.90;51.72
60228;BME280;46091;46.512;6.626;2023-02-18T16:03:11;97797.13;;;14.92;51.83
60228;BME280;46091;46.512;6.626;2023-02-18T16:05:14;97796.31;;;14.91;51.83
60228;BME280;46091;46.512;6.626;2023-02-18T16:07:26;97790.19;;;14.91;51.95
60228;BME280;46091;46.512;6.626;2023-02-18T16:09:32;97784.84;;;14.91;51.63
60228;BME280;46091;46.512;6.626;2023-02-18T16:11:39;97778.50;;;14.92;51.84
60228;BME280;46091;46.512;6.626;2023-02-18T16:13:45;97782.00;;;14.92;51.66
60228;BME280;46091;46.512;6.626;2023-02-18T16:15:49;97784.44;;;14.94;51.63
60228;BME280;46091;46.512;6.626;2023-02-18T16:17:54;97785.28;;;14.94;51.90
60228;BME280;46091;46.512;6.626;2023-02-18T16:20:00;97786.28;;;14.93;51.86
60228;BME280;46091;46.512;6.626;2023-02-18T16:22:21;97777.69;;;14.91;51.93
60228;BME280;46091;46.512;6.626;2023-02-18T16:24:27;97784.03;;;14.90;51.99
60228;BME280;46091;46.512;6.626;2023-02-18T16:26:38;97776.03;;;14.90;51.94
60228;BME280;46091;46.512;6.626;2023-02-18T16:28:44;97773.38;;;14.90;51.71
60228;BME280;46091;46.512;6.626;2023-02-18T16:30:47;97778.72;;;14.90;52.07
60228;BME280;46091;46.512;6.626;2023-02-18T16:32:50;97773.59;;;14.89;51.95
60228;BME280;46091;46.512;6.626;2023-02-18T16:34:54;97776.44;;;14.87;51.83
60228;BME280;46091;46.512;6.626;2023-02-18T16:36:57;97778.28;;;14.87;51.80
60228;BME280;46091;46.512;6.626;2023-02-18T16:39:17;97775.81;;;14.85;51.76
60228;BME280;46091;46.512;6.626;2023-02-18T16:41:20;97777.84;;;14.83;51.99
60228;BME280;46091;46.512;6.626;2023-02-18T16:43:25;97776.19;;;14.82;51.76
60228;BME280;46091;46.512;6.626;2023-02-18T16:45:34;97777.47;;;14.86;52.05
60228;BME280;46091;46.512;6.626;2023-02-18T16:47:38;97770.09;;;14.88;51.82
60228;BME280;46091;46.512;6.626;2023-02-18T16:49:43;97770.72;;;14.90;51.91
60228;BME280;46091;46.512;6.626;2023-02-18T16:51:48;97773.19;;;14.92;52.09
60228;BME280;46091;46.512;6.626;2023-02-18T16:53:51;97769.69;;;14.91;51.97
60228;BME280;46091;46.512;6.626;2023-02-18T16:55:54;97768.06;;;14.90;51.85
60228;BME280;46091;46.512;6.626;2023-02-18T16:57:57;97770.91;;;14.89;51.92
60228;BME280;46091;46.512;6.626;2023-02-18T17:00:00;97772.13;;;14.86;51.93
60228;BME280;46091;46.512;6.626;2023-02-18T17:02:04;97771.53;;;14.84;52.05
60228;BME280;46091;46.512;6.626;2023-02-18T17:04:13;97769.22;;;14.81;52.12
60228;BME280;46091;46.512;6.626;2023-02-18T17:06:16;97768.41;;;14.80;52.34
60228;BME280;46091;46.512;6.626;2023-02-18T17:08:22;97772.28;;;14.78;52.13
60228;BME280;46091;46.512;6.626;2023-02-18T17:10:25;97768.00;;;14.77;52.44
60228;BME280;46091;46.512;6.626;2023-02-18T17:12:28;97767.38;;;14.75;52.23
60228;BME280;46091;46.512;6.626;2023-02-18T17:14:31;97774.72;;;14.73;52.09
60228;BME280;46091;46.512;6.626;2023-02-18T17:16:35;97771.63;;;14.69;52.15
60228;BME280;46091;46.512;6.626;2023-02-18T17:18:37;97773.44;;;14.69;52.28
60228;BME280;46091;46.512;6.626;2023-02-18T17:20:41;97772.00;;;14.66;52.07
60228;BME280;46091;46.512;6.626;2023-02-18T17:22:44;97777.53;;;14.65;52.32
60228;BME280;46091;46.512;6.626;2023-02-18T17:24:48;97767.28;;;14.62;52.27
60228;BME280;46091;46.512;6.626;2023-02-18T17:26:51;97772.59;;;14.62;52.21
60228;BME280;46091;46.512;6.626;2023-02-18T17:28:56;97783.41;;;14.60;52.01
60228;BME280;46091;46.512;6.626;2023-02-18T17:30:59;97790.78;;;14.58;52.08
60228;BME280;46091;46.512;6.626;2023-02-18T17:33:03;97796.31;;;14.56;52.22
60228;BME280;46091;46.512;6.626;2023-02-18T17:35:06;97794.66;;;14.55;52.26
60228;BME280;46091;46.512;6.626;2023-02-18T17:37:11;97788.72;;;14.53;52.13
60228;BME280;46091;46.512;6.626;2023-02-18T17:39:15;97788.09;;;14.51;52.20
60228;BME280;46091;46.512;6.626;2023-02-18T17:41:20;97785.63;;;14.50;52.03
60228;BME280;46091;46.512;6.626;2023-02-18T17:43:23;97787.63;;;14.48;52.32
60228;BME280;46091;46.512;6.626;2023-02-18T17:45:28;97786.00;;;14.47;52.07
60228;BME280;46091;46.512;6.626;2023-02-18T17:47:32;97788.84;;;14.45;52.05
60228;BME280;46091;46.512;6.626;2023-02-18T17:49:35;97776.72;;;14.43;52.30
60228;BME280;46091;46.512;6.626;2023-02-18T17:51:38;97783.88;;;14.42;52.34
60228;BME280;46091;46.512;6.626;2023-02-18T17:53:41;97790.22;;;14.41;52.18
60228;BME280;46091;46.512;6.626;2023-02-18T17:55:45;97791.25;;;14.40;52.22
60228;BME280;46091;46.512;6.626;2023-02-18T17:57:51;97782.44;;;14.40;52.24
60228;BME280;46091;46.512;6.626;2023-02-18T17:59:54;97794.09;;;14.39;52.00
60228;BME280;46091;46.512;6.626;2023-02-18T18:02:01;97797.59;;;14.39;52.05
60228;BME280;46091;46.512;6.626;2023-02-18T18:04:05;97797.59;;;14.39;52.04
60228;BME280;46091;46.512;6.626;2023-02-18T18:06:14;97793.25;;;14.38;52.13
60228;BME280;46091;46.512;6.626;2023-02-18T18:08:18;97790.59;;;14.38;52.11
60228;BME280;46091;46.512;6.626;2023-02-18T18:10:23;97796.78;;;14.39;51.90
60228;BME280;46091;46.512;6.626;2023-02-18T18:12:29;97795.09;;;14.38;52.13
60228;BME280;46091;46.512;6.626;2023-02-18T18:14:34;97799.59;;;14.37;51.81
60228;BME280;46091;46.512;6.626;2023-02-18T18:16:36;97797.75;;;14.38;52.13
60228;BME280;46091;46.512;6.626;2023-02-18T18:18:39;97806.56;;;14.38;52.12
60228;BME280;46091;46.512;6.626;2023-02-18T18:20:44;97796.78;;;14.39;51.86
60228;BME280;46091;46.512;6.626;2023-02-18T18:22:48;97804.56;;;14.40;52.17
60228;BME280;46091;46.512;6.626;2023-02-18T18:24:51;97807.22;;;14.40;52.00
60228;BME280;46091;46.512;6.626;2023-02-18T18:26:54;97803.72;;;14.40;52.05
60228;BME280;46091;46.512;6.626;2023-02-18T18:28:56;97804.56;;;14.40;51.85
60228;BME280;46091;46.512;6.626;2023-02-18T18:31:01;97796.78;;;14.39;52.02
60228;BME280;46091;46.512;6.626;2023-02-18T18:33:12;97803.91;;;14.38;52.07
60228;BME280;46091;46.512;6.626;2023-02-18T18:35:22;97800.41;;;14.38;52.14
60228;BME280;46091;46.512;6.626;2023-02-18T18:37:25;97801.22;;;14.38;52.22
60228;BME280;46091;46.512;6.626;2023-02-18T18:39:28;97803.06;;;14.38;52.12
60228;BME280;46091;46.512;6.626;2023-02-18T18:41:30;97797.94;;;14.36;52.00
60228;BME280;46091;46.512;6.626;2023-02-18T18:43:33;97798.97;;;14.35;52.08
60228;BME280;46091;46.512;6.626;2023-02-18T18:45:39;97803.66;;;14.33;52.23
60228;BME280;46091;46.512;6.626;2023-02-18T18:47:43;97800.78;;;14.28;52.37
60228;BME280;46091;46.512;6.626;2023-02-18T18:49:46;97809.75;;;14.27;52.13
60228;BME280;46091;46.512;6.626;2023-02-18T18:51:49;97810.94;;;14.24;52.36
60228;BME280;46091;46.512;6.626;2023-02-18T18:53:52;97810.50;;;14.21;52.23
60228;BME280;46091;46.512;6.626;2023-02-18T18:55:56;97806.41;;;14.18;52.35
60228;BME280;46091;46.512;6.626;2023-02-18T18:58:00;97807.63;;;14.16;52.34
60228;BME280;46091;46.512;6.626;2023-02-18T19:00:03;97811.66;;;14.12;52.52
60228;BME280;46091;46.512;6.626;2023-02-18T19:02:13;97815.91;;;14.06;52.36
60228;BME280;46091;46.512;6.626;2023-02-18T19:04:18;97816.09;;;14.05;52.47
60228;BME280;46091;46.512;6.626;2023-02-18T19:06:21;97814.81;;;14.01;52.47
60228;BME280;46091;46.512;6.626;2023-02-18T19:08:24;97810.91;;;13.96;52.79
60228;BME280;46091;46.512;6.626;2023-02-18T19:10:29;97813.56;;;13.96;52.47
60228;BME280;46091;46.512;6.626;2023-02-18T19:12:32;97813.56;;;13.96;52.62
60228;BME280;46091;46.512;6.626;2023-02-18T19:14:35;97815.59;;;13.94;52.57
60228;BME280;46091;46.512;6.626;2023-02-18T19:16:40;97822.09;;;13.92;52.75
60228;BME280;46091;46.512;6.626;2023-02-18T19:18:43;97815.13;;;13.91;52.49
60228;BME280;46091;46.512;6.626;2023-02-18T19:20:47;97816.34;;;13.88;52.60
60228;BME280;46091;46.512;6.626;2023-02-18T19:22:50;97813.06;;;13.86;52.52
60228;BME280;46091;46.512;6.626;2023-02-18T19:24:53;97813.06;;;13.86;52.94
60228;BME280;46091;46.512;6.626;2023-02-18T19:26:56;97820.41;;;13.84;52.89
60228;BME280;46091;46.512;6.626;2023-02-18T19:28:59;97818.75;;;13.83;52.93
60228;BME280;46091;46.512;6.626;2023-02-18T19:31:06;97816.09;;;13.83;52.72
60228;BME280;46091;46.512;6.626;2023-02-18T19:33:12;97817.13;;;13.82;53.01
60228;BME280;46091;46.512;6.626;2023-02-18T19:35:15;97809.31;;;13.81;52.76
60228;BME280;46091;46.512;6.626;2023-02-18T19:37:20;97809.13;;;13.82;52.73
60228;BME280;46091;46.512;6.626;2023-02-18T19:39:23;97820.75;;;13.81;52.75
60228;BME280;46091;46.512;6.626;2023-02-18T19:41:26;97813.78;;;13.80;53.03
60228;BME280;46091;46.512;6.626;2023-02-18T19:43:29;97817.47;;;13.79;52.81
60228;BME280;46091;46.512;6.626;2023-02-18T19:45:32;97817.66;;;13.78;52.89
60228;BME280;46091;46.512;6.626;2023-02-18T19:47:36;97817.84;;;13.76;52.82
60228;BME280;46091;46.512;6.626;2023-02-18T19:49:38;97818.66;;;13.77;53.17
60228;BME280;46091;46.512;6.626;2023-02-18T19:51:41;97818.88;;;13.75;53.11
60228;BME280;46091;46.512;6.626;2023-02-18T19:53:46;97817.84;;;13.76;52.88
60228;BME280;46091;46.512;6.626;2023-02-18T19:55:55;97824.19;;;13.75;52.89
60228;BME280;46091;46.512;6.626;2023-02-18T19:57:59;97820.50;;;13.76;53.19
60228;BME280;46091;46.512;6.626;2023-02-18T20:00:02;97826.66;;;13.77;53.27
60228;BME280;46091;46.512;6.626;2023-02-18T20:02:06;97818.66;;;13.77;53.00
60228;BME280;46091;46.512;6.626;2023-02-18T20:04:08;97823.16;;;13.76;53.35
60228;BME280;46091;46.512;6.626;2023-02-18T20:06:15;97827.47;;;13.77;53.38
60228;BME280;46091;46.512;6.626;2023-02-18T20:08:19;97825.63;;;13.78;53.33
60228;BME280;46091;46.512;6.626;2023-02-18T20:10:23;97824.81;;;13.77;53.06
60228;BME280;46091;46.512;6.626;2023-02-18T20:12:26;97828.28;;;13.78;53.50
60228;BME280;46091;46.512;6.626;2023-02-18T20:14:28;97824.81;;;13.77;53.41
60228;BME280;46091;46.512;6.626;2023-02-18T20:16:31;97824.19;;;13.75;53.15
60228;BME280;46091;46.512;6.626;2023-02-18T20:18:34;97829.31;;;13.77;53.22
60228;BME280;46091;46.512;6.626;2023-02-18T20:20:38;97831.13;;;13.76;53.58
60228;BME280;46091;46.512;6.626;2023-02-18T20:22:40;97830.88;;;13.71;53.58
60228;BME280;46091;46.512;6.626;2023-02-18T20:24:43;97819.59;;;13.69;53.35
60228;BME280;46091;46.512;6.626;2023-02-18T20:26:47;97826.94;;;13.67;53.33
60228;BME280;46091;46.512;6.626;2023-02-18T20:28:50;97829.97;;;13.64;53.64
60228;BME280;46091;46.512;6.626;2023-02-18T20:31:02;97831.38;;;13.60;53.76
60228;BME280;46091;46.512;6.626;2023-02-18T20:33:05;97824.56;;;13.57;53.61
60228;BME280;46091;46.512;6.626;2023-02-18T20:35:08;97823.75;;;13.57;53.63
60228;BME280;46091;46.512;6.626;2023-02-18T20:37:11;97824.78;;;13.56;53.79
60228;BME280;46091;46.512;6.626;2023-02-18T20:39:14;97824.97;;;13.54;53.63
60228;BME280;46091;46.512;6.626;2023-02-18T20:41:20;97825.34;;;13.51;53.48
60228;BME280;46091;46.512;6.626;2023-02-18T20:43:24;97833.50;;;13.50;53.77
60228;BME280;46091;46.512;6.626;2023-02-18T20:45:27;97838.81;;;13.50;53.80
60228;BME280;46091;46.512;6.626;2023-02-18T20:47:30;97836.50;;;13.47;53.71
60228;BME280;46091;46.512;6.626;2023-02-18T20:49:33;97833.22;;;13.45;53.57
60228;BME280;46091;46.512;6.626;2023-02-18T20:51:36;97838.72;;;13.43;53.95
60228;BME280;46091;46.512;6.626;2023-02-18T20:53:42;97837.25;;;13.40;53.70
60228;BME280;46091;46.512;6.626;2023-02-18T20:55:45;97839.28;;;13.38;53.88
60228;BME280;46091;46.512;6.626;2023-02-18T20:57:48;97835.00;;;13.37;53.65
60228;BME280;46091;46.512;6.626;2023-02-18T20:59:53;97835.16;;;13.36;53.66
60228;BME280;46091;46.512;6.626;2023-02-18T21:01:56;97836.34;;;13.33;53.94
60228;BME280;46091;46.512;6.626;2023-02-18T21:03:59;97833.88;;;13.32;54.04
60228;BME280;46091;46.512;6.626;2023-02-18T21:06:04;97840.59;;;13.28;53.73
60228;BME280;46091;46.512;6.626;2023-02-18T21:08:07;97839.28;;;13.24;53.93
60228;BME280;46091;46.512;6.626;2023-02-18T21:10:10;97832.50;;;13.21;53.86
60228;BME280;46091;46.512;6.626;2023-02-18T21:12:13;97837.00;;;13.21;53.91
60228;BME280;46091;46.512;6.626;2023-02-18T21:14:16;97824.72;;;13.20;54.27